createdAt,value
2022-10-29T00:01:07.348Z,20.99
2022-10-29T00:03:38.177Z,20.54
2022-10-29T00:06:11.529Z,21.01
2022-10-29T00:08:41.492Z,20.37
2022-10-29T00:11:15.962Z,21.01
2022-10-29T00:13:48.556Z,21.01
2022-10-29T00:16:20.451Z,20.97
2022-10-29T00:18:51.217Z,20.59
2022-10-29T00:21:21.367Z,21.01
2022-10-29T00:23:54.129Z,21.01
2022-10-29T00:26:27.166Z,21.01
2022-10-29T00:29:00.680Z,21.01
2022-10-29T00:31:29.952Z,21.00
2022-10-29T00:34:00.440Z,21.01
2022-10-29T00:36:37.690Z,21.00
2022-10-29T00:39:06.218Z,21.00
2022-10-29T00:41:43.760Z,20.56
2022-10-29T00:44:32.297Z,20.63
2022-10-29T00:47:13.636Z,20.47
2022-10-29T00:49:51.138Z,20.55
2022-10-29T00:52:24.082Z,20.08
2022-10-29T00:54:53.151Z,20.07
2022-10-29T00:57:33.166Z,20.56
2022-10-29T01:00:02.925Z,20.99
2022-10-29T01:02:44.017Z,20.96
2022-10-29T01:05:17.877Z,20.97
2022-10-29T01:07:50.166Z,20.14
2022-10-29T01:10:25.992Z,20.95
2022-10-29T01:13:09.762Z,20.90
2022-10-29T01:15:47.776Z,20.08
2022-10-29T01:18:24.191Z,20.95
2022-10-29T01:24:30.531Z,20.99
2022-10-29T01:27:27.419Z,20.76
2022-10-29T01:30:06.260Z,20.96
2022-10-29T01:32:46.819Z,20.97
2022-10-29T01:35:23.300Z,20.95
2022-10-29T01:38:00.493Z,20.94
2022-10-29T01:40:34.947Z,20.95
2022-10-29T01:43:09.731Z,20.95
2022-10-29T01:45:44.450Z,20.95
2022-10-29T01:48:18.154Z,20.96
2022-10-29T01:50:52.898Z,20.96
2022-10-29T01:53:21.955Z,20.95
2022-10-29T01:55:49.897Z,20.96
2022-10-29T01:58:19.411Z,20.96
2022-10-29T02:00:54.836Z,20.98
2022-10-29T02:03:36.653Z,20.97
2022-10-29T02:06:14.886Z,20.97
2022-10-29T02:08:49.624Z,20.97
2022-10-29T02:11:23.045Z,20.97
2022-10-29T02:13:55.952Z,20.96
2022-10-29T02:16:26.160Z,20.97
2022-10-29T02:18:55.572Z,20.95
2022-10-29T02:21:23.546Z,21.00
2022-10-29T02:23:51.975Z,21.01
2022-10-29T02:26:19.977Z,21.01
2022-10-29T02:28:47.888Z,21.01
2022-10-29T02:31:15.824Z,21.01
2022-10-29T02:33:43.803Z,21.02
2022-10-29T02:36:13.080Z,21.02
2022-10-29T02:38:41.063Z,21.00
2022-10-29T02:41:08.998Z,21.02
2022-10-29T02:43:36.941Z,21.01
2022-10-29T02:46:12.488Z,20.84
2022-10-29T02:48:40.419Z,21.01
2022-10-29T02:51:08.314Z,21.01
2022-10-29T02:53:37.891Z,21.01
2022-10-29T02:56:07.133Z,21.01
2022-10-29T02:58:36.084Z,20.82
2022-10-29T03:01:04.538Z,20.99
2022-10-29T03:03:32.506Z,20.95
2022-10-29T03:06:00.493Z,20.94
2022-10-29T03:08:28.427Z,20.95
2022-10-29T03:10:57.780Z,20.95
2022-10-29T03:13:25.754Z,20.95
2022-10-29T03:15:53.690Z,20.92
2022-10-29T03:18:21.653Z,20.95
2022-10-29T03:20:49.584Z,20.95
2022-10-29T03:23:17.575Z,20.95
2022-10-29T03:25:45.636Z,20.96
2022-10-29T03:28:14.960Z,20.95
2022-10-29T03:30:43.217Z,20.96
2022-10-29T03:33:11.156Z,20.94
2022-10-29T03:35:39.153Z,20.96
2022-10-29T03:38:07.323Z,20.96
2022-10-29T03:40:35.320Z,20.96
2022-10-29T03:43:03.266Z,20.97
2022-10-29T03:45:32.647Z,20.97
2022-10-29T03:48:00.579Z,20.96
2022-10-29T03:50:28.560Z,20.96
2022-10-29T03:52:56.469Z,20.94
2022-10-29T03:55:24.511Z,20.92
2022-10-29T03:57:52.524Z,20.95
2022-10-29T04:00:20.535Z,20.95
2022-10-29T04:02:49.911Z,20.94
2022-10-29T04:05:17.949Z,20.95
2022-10-29T04:07:45.896Z,20.96
2022-10-29T04:10:13.816Z,20.95
2022-10-29T04:12:46.485Z,20.95
2022-10-29T04:15:14.504Z,20.94
2022-10-29T04:17:42.436Z,20.94
2022-10-29T04:20:27.864Z,20.95
2022-10-29T04:27:07.715Z,20.93
2022-10-29T04:28:45.173Z,20.92
2022-10-29T04:31:13.866Z,20.93
2022-10-29T04:33:41.844Z,20.93
2022-10-29T04:36:11.785Z,20.93
2022-10-29T04:38:40.021Z,20.94
2022-10-29T04:41:07.948Z,20.92
2022-10-29T04:43:35.874Z,20.92
2022-10-29T04:46:03.831Z,20.93
2022-10-29T04:48:31.760Z,20.95
2022-10-29T04:50:59.730Z,20.95
2022-10-29T04:53:29.110Z,20.96
2022-10-29T04:56:00.768Z,20.96
2022-10-29T04:58:29.151Z,20.96
2022-10-29T05:01:02.561Z,20.95
2022-10-29T05:03:30.675Z,20.94
2022-10-29T05:05:58.946Z,20.95
2022-10-29T05:08:30.583Z,20.96
2022-10-29T05:10:58.668Z,20.90
2022-10-29T05:13:26.616Z,20.99
2022-10-29T05:15:54.595Z,20.98
2022-10-29T05:18:22.535Z,20.97
2022-10-29T05:20:54.172Z,20.98
2022-10-29T05:23:22.394Z,20.98
2022-10-29T05:25:52.600Z,20.96
2022-10-29T05:28:22.573Z,20.98
2022-10-29T05:30:51.902Z,20.98
2022-10-29T05:33:21.664Z,20.93
2022-10-29T05:35:49.840Z,20.97
2022-10-29T05:38:18.402Z,20.97
2022-10-29T05:40:46.460Z,20.98
2022-10-29T05:43:17.118Z,20.92
2022-10-29T05:45:45.798Z,20.98
2022-10-29T05:48:14.324Z,20.97
2022-10-29T05:50:42.634Z,20.98
2022-10-29T05:53:12.700Z,20.99
2022-10-29T05:55:41.303Z,20.97
2022-10-29T05:58:12.273Z,20.96
2022-10-29T06:00:43.719Z,20.96
2022-10-29T06:03:14.630Z,20.95
2022-10-29T06:05:42.912Z,20.95
2022-10-29T06:08:11.281Z,20.95
2022-10-29T06:10:39.524Z,20.95
2022-10-29T06:13:12.099Z,20.96
2022-10-29T06:15:41.412Z,20.97
2022-10-29T06:18:09.402Z,20.96
2022-10-29T06:20:38.397Z,20.97
2022-10-29T06:23:07.245Z,20.97
2022-10-29T06:25:35.266Z,20.96
2022-10-29T06:28:05.074Z,20.96
2022-10-29T06:30:34.751Z,20.96
2022-10-29T06:33:05.504Z,20.95
2022-10-29T06:38:07.848Z,20.97
2022-10-29T06:40:40.396Z,20.97
2022-10-29T06:43:10.557Z,20.97
2022-10-29T06:45:38.687Z,20.96
2022-10-29T06:48:08.570Z,20.97
2022-10-29T06:50:36.629Z,20.96
2022-10-29T06:53:05.674Z,20.93
2022-10-29T06:55:34.451Z,20.97
2022-10-29T06:58:06.915Z,20.96
2022-10-29T07:00:35.664Z,20.96
2022-10-29T07:03:05.095Z,20.96
2022-10-29T07:05:36.423Z,20.96
2022-10-29T07:08:04.458Z,20.94
2022-10-29T07:10:34.392Z,20.95
2022-10-29T07:13:02.502Z,20.96
2022-10-29T07:15:31.509Z,20.95
2022-10-29T07:18:00.603Z,20.96
2022-10-29T07:20:29.626Z,20.96
2022-10-29T07:22:59.456Z,20.98
2022-10-29T07:25:27.636Z,20.96
2022-10-29T07:27:55.901Z,20.96
2022-10-29T07:30:25.731Z,20.95
2022-10-29T07:32:53.715Z,20.95
2022-10-29T07:35:21.698Z,20.96
2022-10-29T07:37:49.653Z,20.97
2022-10-29T07:40:18.950Z,20.96
2022-10-29T07:42:46.901Z,20.97
2022-10-29T07:45:14.928Z,20.92
2022-10-29T07:47:43.136Z,20.97
2022-10-29T07:50:11.402Z,20.96
2022-10-29T07:52:39.371Z,20.95
2022-10-29T07:55:08.046Z,20.96
2022-10-29T07:57:37.415Z,20.95
2022-10-29T08:00:05.988Z,20.96
2022-10-29T08:02:33.932Z,20.95
2022-10-29T08:05:01.847Z,20.96
2022-10-29T08:07:29.868Z,20.96
2022-10-29T08:09:58.117Z,20.96
2022-10-29T08:12:26.048Z,20.97
2022-10-29T08:14:55.379Z,20.98
2022-10-29T08:17:23.419Z,20.97
2022-10-29T08:19:51.352Z,20.97
2022-10-29T08:22:19.394Z,20.96
2022-10-29T08:24:47.333Z,20.97
2022-10-29T08:27:15.282Z,20.96
2022-10-29T08:29:43.215Z,20.97
2022-10-29T08:32:12.571Z,20.97
2022-10-29T08:34:40.514Z,20.98
2022-10-29T08:37:08.469Z,20.97
2022-10-29T08:39:36.389Z,20.96
2022-10-29T08:42:15.820Z,20.98
2022-10-29T08:45:07.956Z,20.97
2022-10-29T08:47:48.904Z,20.96
2022-10-29T08:50:23.228Z,20.96
2022-10-29T08:52:58.686Z,20.96
2022-10-29T08:55:37.825Z,20.94
2022-10-29T08:58:20.597Z,20.94
2022-10-29T09:00:53.702Z,20.93
2022-10-29T09:03:23.159Z,20.94
2022-10-29T09:05:59.519Z,20.92
2022-10-29T09:08:38.976Z,20.92
2022-10-29T09:11:28.819Z,20.94
2022-10-29T09:14:12.083Z,20.94
2022-10-29T09:16:45.172Z,20.95
2022-10-29T09:19:40.916Z,20.94
2022-10-29T09:22:18.719Z,20.95
2022-10-29T09:24:56.258Z,20.93
2022-10-29T09:27:37.648Z,20.93
2022-10-29T09:30:11.466Z,20.93
2022-10-29T09:32:44.160Z,20.94
2022-10-29T09:35:16.599Z,20.93
2022-10-29T09:37:49.979Z,20.93
2022-10-29T09:40:29.125Z,20.93
2022-10-29T09:42:59.396Z,20.93
2022-10-29T09:45:39.268Z,20.93
2022-10-29T09:48:13.528Z,20.92
2022-10-29T09:50:53.753Z,20.93
2022-10-29T09:53:21.833Z,20.93
2022-10-29T09:55:53.816Z,20.93
2022-10-29T09:58:23.804Z,20.91
2022-10-29T10:00:52.439Z,20.88
2022-10-29T10:03:27.187Z,20.91
2022-10-29T10:06:02.259Z,20.89
2022-10-29T10:08:30.793Z,20.93
2022-10-29T10:11:00.819Z,20.90
2022-10-29T10:13:31.191Z,20.93
2022-10-29T10:16:01.157Z,20.93
2022-10-29T10:18:41.165Z,20.94
2022-10-29T10:21:12.495Z,20.92
2022-10-29T10:23:43.619Z,20.93
2022-10-29T10:26:31.003Z,20.94
2022-10-29T10:29:16.068Z,20.81
2022-10-29T10:31:45.712Z,20.93
2022-10-29T10:34:21.590Z,20.94
2022-10-29T10:36:54.960Z,20.89
2022-10-29T10:39:35.954Z,20.91
2022-10-29T10:42:06.295Z,20.93
2022-10-29T10:44:34.883Z,20.93
2022-10-29T10:47:08.420Z,20.93
2022-10-29T10:49:38.339Z,20.90
2022-10-29T10:52:16.386Z,20.90
2022-10-29T10:54:47.825Z,20.92
2022-10-29T10:57:24.232Z,20.91
2022-10-29T10:59:59.451Z,20.92
2022-10-29T11:02:39.103Z,20.90
2022-10-29T11:05:17.070Z,20.93
2022-10-29T11:07:52.415Z,20.86
2022-10-29T11:10:25.957Z,20.93
2022-10-29T11:12:57.896Z,20.94
2022-10-29T11:15:37.274Z,20.94
2022-10-29T11:18:13.713Z,20.94
2022-10-29T11:20:48.751Z,20.95
2022-10-29T11:23:32.054Z,20.95
2022-10-29T11:26:09.275Z,20.95
2022-10-29T11:28:42.072Z,20.94
2022-10-29T11:31:21.609Z,20.94
2022-10-29T11:34:01.456Z,20.94
2022-10-29T11:36:34.144Z,20.94
2022-10-29T11:39:09.716Z,20.95
2022-10-29T11:41:45.471Z,20.95
2022-10-29T11:44:15.422Z,20.94
2022-10-29T11:46:59.460Z,20.95
2022-10-29T11:49:42.613Z,20.95
2022-10-29T11:52:13.668Z,20.95
2022-10-29T11:54:53.657Z,20.96
2022-10-29T11:57:27.650Z,20.94
2022-10-29T12:00:05.908Z,20.95
2022-10-29T12:02:54.089Z,20.94
2022-10-29T12:05:30.267Z,20.94
2022-10-29T12:08:15.283Z,20.57
2022-10-29T12:10:55.601Z,20.94
2022-10-29T12:13:40.698Z,20.94
2022-10-29T12:16:19.998Z,20.87
2022-10-29T12:18:56.500Z,20.94
2022-10-29T12:21:36.742Z,20.94
2022-10-29T12:24:20.285Z,20.95
2022-10-29T12:26:56.516Z,20.94
2022-10-29T12:29:33.651Z,20.94
2022-10-29T12:32:08.810Z,20.96
2022-10-29T12:34:43.501Z,20.96
2022-10-29T12:37:18.676Z,20.85
2022-10-29T12:39:50.208Z,20.96
2022-10-29T12:42:24.142Z,20.55
2022-10-29T12:45:04.138Z,20.99
2022-10-29T12:47:37.267Z,21.00
2022-10-29T12:50:18.043Z,21.02
2022-10-29T12:52:50.901Z,21.06
2022-10-29T12:55:19.713Z,21.07
2022-10-29T12:57:51.297Z,21.09
2022-10-29T13:00:49.517Z,21.08
2022-10-29T13:03:54.571Z,21.06
2022-10-29T13:06:47.101Z,21.05
2022-10-29T13:09:20.643Z,21.03
2022-10-29T13:11:50.754Z,20.91
2022-10-29T13:14:27.454Z,21.02
2022-10-29T13:16:57.137Z,21.01
2022-10-29T13:19:38.803Z,21.02
2022-10-29T13:22:36.479Z,21.00
2022-10-29T13:25:30.134Z,20.99
2022-10-29T13:27:58.192Z,20.98
2022-10-29T13:30:29.540Z,20.98
2022-10-29T13:32:58.331Z,20.99
2022-10-29T13:35:41.315Z,20.99
2022-10-29T13:38:51.952Z,21.00
2022-10-29T13:41:39.986Z,20.94
2022-10-29T13:44:13.659Z,21.00
2022-10-29T13:46:52.878Z,20.99
2022-10-29T13:49:25.793Z,21.01
2022-10-29T13:51:58.195Z,21.00
2022-10-29T13:54:32.565Z,21.00
2022-10-29T13:57:02.303Z,20.99
2022-10-29T13:59:39.698Z,20.99
2022-10-29T14:02:23.194Z,20.81
2022-10-29T14:04:56.662Z,21.00
2022-10-29T14:07:32.242Z,20.51
2022-10-29T14:10:08.092Z,21.00
2022-10-29T14:12:38.416Z,21.00
2022-10-29T14:15:09.957Z,21.02
2022-10-29T14:17:39.987Z,21.02
2022-10-29T14:20:21.568Z,21.02
2022-10-29T14:22:49.628Z,21.01
2022-10-29T14:25:35.783Z,20.99
2022-10-29T14:28:16.701Z,21.01
2022-10-29T14:30:44.963Z,20.83
2022-10-29T14:33:36.451Z,21.00
2022-10-29T14:36:17.597Z,20.98
2022-10-29T14:38:50.635Z,20.98
2022-10-29T14:41:19.934Z,21.00
2022-10-29T14:43:56.243Z,21.00
2022-10-29T14:46:27.707Z,21.00
2022-10-29T14:49:04.698Z,21.00
2022-10-29T15:08:42.241Z,21.49
2022-10-29T15:11:35.386Z,21.45
2022-10-29T15:14:05.085Z,21.31
2022-10-29T15:16:38.134Z,21.26
2022-10-29T15:19:16.376Z,21.21
2022-10-29T15:21:45.219Z,21.15
2022-10-29T15:24:20.926Z,21.09
2022-10-29T15:26:51.925Z,21.08
2022-10-29T15:29:32.166Z,21.04
2022-10-29T15:32:01.644Z,20.99
2022-10-29T15:34:33.201Z,20.95
2022-10-29T15:37:16.190Z,20.91
2022-10-29T15:40:03.879Z,20.83
2022-10-29T15:42:34.262Z,20.85
2022-10-29T15:58:03.366Z,21.66
2022-10-29T16:00:32.497Z,21.57
2022-10-29T16:03:07.646Z,21.49
2022-10-29T16:05:35.673Z,21.38
2022-10-29T16:08:04.809Z,21.30
2022-10-29T16:10:33.135Z,21.26
2022-10-29T16:13:04.577Z,21.16
2022-10-29T16:15:32.501Z,21.09
2022-10-29T16:18:00.774Z,21.04
2022-10-29T16:20:28.867Z,21.00
2022-10-29T16:22:56.974Z,20.81
2022-10-29T16:25:27.264Z,20.94
2022-10-29T16:27:56.310Z,20.91
2022-10-29T16:30:26.207Z,20.88
2022-10-29T16:32:54.881Z,20.86
2022-10-29T16:35:24.704Z,20.80
2022-10-29T16:37:53.757Z,20.84
2022-10-29T16:40:23.827Z,20.82
2022-10-29T16:42:52.257Z,20.83
2022-10-29T16:45:22.619Z,20.79
2022-10-29T16:47:53.005Z,20.79
2022-10-29T16:50:22.961Z,20.77
2022-10-29T16:52:57.575Z,20.80
2022-10-29T16:55:25.619Z,20.78
2022-10-29T16:57:53.886Z,20.81
2022-10-29T17:00:22.523Z,20.80
2022-10-29T17:02:51.886Z,20.78
2022-10-29T17:05:19.942Z,20.76
2022-10-29T17:07:47.882Z,20.73
2022-10-29T17:10:15.867Z,20.78
2022-10-29T17:12:43.790Z,20.78
2022-10-29T17:15:11.946Z,20.77
2022-10-29T17:17:42.413Z,20.78
2022-10-29T17:20:14.899Z,20.75
2022-10-29T17:22:42.965Z,20.75
2022-10-29T17:25:11.557Z,20.74
2022-10-29T17:27:40.304Z,20.75
2022-10-29T17:30:10.655Z,20.75
2022-10-29T17:32:38.969Z,20.75
2022-10-29T17:35:07.718Z,20.72
2022-10-29T17:37:37.252Z,20.73
2022-10-29T17:40:07.113Z,20.74
2022-10-29T17:42:36.517Z,20.75
2022-10-29T17:45:04.784Z,20.73
2022-10-29T17:47:32.779Z,20.75
2022-10-29T17:50:00.735Z,20.75
2022-10-29T17:52:28.688Z,20.74
2022-10-29T17:54:58.016Z,20.72
2022-10-29T17:57:25.979Z,20.73
2022-10-29T17:59:55.247Z,20.78
2022-10-29T18:02:23.481Z,20.78
2022-10-29T18:04:51.870Z,20.78
2022-10-29T18:07:19.914Z,20.78
2022-10-29T18:09:47.914Z,20.79
2022-10-29T18:12:17.247Z,20.78
2022-10-29T18:14:45.549Z,20.80
2022-10-29T18:17:13.462Z,20.77
2022-10-29T18:19:41.459Z,20.78
2022-10-29T18:22:09.524Z,20.81
2022-10-29T18:24:37.591Z,20.81
2022-10-29T18:27:06.077Z,20.81
2022-10-29T18:29:35.924Z,20.81
2022-10-29T18:32:04.116Z,20.80
2022-10-29T18:34:34.210Z,20.81
2022-10-29T18:37:02.525Z,20.81
2022-10-29T18:39:30.742Z,20.81
2022-10-29T18:41:59.722Z,20.80
2022-10-29T18:44:27.727Z,20.81
2022-10-29T18:46:57.473Z,20.79
2022-10-29T18:49:25.727Z,20.80
2022-10-29T18:51:54.773Z,20.78
2022-10-29T18:54:23.197Z,20.78
2022-10-29T18:56:51.398Z,20.77
2022-10-29T18:59:19.674Z,20.77
2022-10-29T19:01:48.119Z,20.78
2022-10-29T19:04:17.823Z,20.75
2022-10-29T19:06:45.838Z,20.78
2022-10-29T19:09:14.113Z,20.77
2022-10-29T19:11:42.331Z,20.77
2022-10-29T19:14:13.952Z,20.80
2022-10-29T19:16:42.006Z,20.80
2022-10-29T19:19:13.983Z,20.81
2022-10-29T19:21:44.632Z,20.80
2022-10-29T19:24:15.368Z,20.81
2022-10-29T19:26:43.977Z,20.82
2022-10-29T19:29:12.981Z,20.82
2022-10-29T19:31:41.274Z,20.81
2022-10-29T19:34:09.895Z,20.78
2022-10-29T19:36:40.281Z,20.79
2022-10-29T19:39:09.957Z,20.80
2022-10-29T19:41:38.387Z,20.78
2022-10-29T19:44:08.621Z,20.79
2022-10-29T19:46:36.606Z,20.81
2022-10-29T19:49:04.916Z,20.81
2022-10-29T19:51:32.916Z,20.81
2022-10-29T19:54:04.210Z,20.78
2022-10-29T19:56:33.825Z,20.66
2022-10-29T19:59:01.976Z,20.76
2022-10-29T20:01:30.074Z,20.75
2022-10-29T20:03:58.644Z,20.79
2022-10-29T20:06:26.631Z,20.80
2022-10-29T20:08:54.550Z,20.81
2022-10-29T20:11:23.071Z,20.79
2022-10-29T20:13:52.482Z,20.79
2022-10-29T20:16:22.852Z,20.79
2022-10-29T20:18:52.356Z,20.62
2022-10-29T20:21:20.512Z,20.77
2022-10-29T20:23:48.476Z,20.76
2022-10-29T20:26:16.498Z,20.76
2022-10-29T20:28:44.510Z,20.77
2022-10-29T20:31:30.192Z,20.55
2022-10-29T20:33:59.903Z,20.77
2022-10-29T20:36:30.453Z,20.74
2022-10-29T20:38:59.226Z,20.73
2022-10-29T20:41:27.265Z,20.75
2022-10-29T20:43:57.067Z,20.69
2022-10-29T20:46:27.550Z,20.74
2022-10-29T20:48:55.928Z,20.74
2022-10-29T20:51:24.307Z,20.75
2022-10-29T20:53:52.980Z,20.74
2022-10-29T20:56:22.211Z,20.75
2022-10-29T20:58:50.598Z,20.75
2022-10-29T21:01:20.980Z,20.74
2022-10-29T21:03:51.132Z,20.74
2022-10-29T21:06:19.719Z,20.77
2022-10-29T21:08:48.630Z,20.80
2022-10-29T21:11:17.928Z,20.77
2022-10-29T21:13:46.327Z,20.80
2022-10-29T21:16:17.560Z,20.80
2022-10-29T21:18:47.804Z,20.77
2022-10-29T21:21:18.538Z,20.74
2022-10-29T21:23:46.794Z,20.76
2022-10-29T21:26:16.561Z,20.76
2022-10-29T21:28:44.875Z,20.71
2022-10-29T21:31:13.002Z,20.74
2022-10-29T21:33:40.919Z,20.73
2022-10-29T21:36:09.488Z,20.70
2022-10-29T21:38:38.820Z,20.69
2022-10-29T21:41:07.090Z,20.74
2022-10-29T21:43:35.175Z,20.76
2022-10-29T21:46:03.198Z,20.74
2022-10-29T21:48:31.677Z,20.76
2022-10-29T21:51:01.978Z,20.77
2022-10-29T21:53:30.651Z,20.78
2022-10-29T21:56:01.777Z,20.77
2022-10-29T21:58:30.108Z,20.77
2022-10-29T22:01:06.314Z,20.76
2022-10-29T22:03:35.386Z,20.78
2022-10-29T22:06:05.083Z,20.78
2022-10-29T22:08:33.074Z,20.78
2022-10-29T22:11:02.750Z,20.78
2022-10-29T22:13:31.770Z,20.76
2022-10-29T22:15:59.847Z,20.77
2022-10-29T22:18:28.497Z,20.77
2022-10-29T22:21:08.344Z,20.78
2022-10-29T22:23:38.380Z,20.76
2022-10-29T22:26:07.688Z,20.75
2022-10-29T22:28:35.664Z,20.76
2022-10-29T22:31:04.872Z,20.74
2022-10-29T22:33:33.694Z,20.75
2022-10-29T22:36:07.101Z,20.75
2022-10-29T22:38:35.111Z,20.75
2022-10-29T22:41:09.471Z,20.77
2022-10-29T22:43:38.117Z,20.75
2022-10-29T22:46:07.274Z,20.76
2022-10-29T22:48:35.875Z,20.78
2022-10-29T22:51:05.752Z,20.77
2022-10-29T22:53:34.286Z,20.76
2022-10-29T22:56:03.226Z,20.76
2022-10-29T22:58:32.983Z,20.76
2022-10-29T23:01:06.682Z,20.76
2022-10-29T23:03:35.310Z,20.75
2022-10-29T23:06:05.462Z,20.75
2022-10-29T23:08:33.972Z,20.75
2022-10-29T23:11:06.683Z,20.74
2022-10-29T23:13:36.328Z,20.70
2022-10-29T23:16:05.435Z,20.76
2022-10-29T23:18:33.342Z,20.76
2022-10-29T23:21:02.592Z,20.73
2022-10-29T23:23:31.218Z,20.76
2022-10-29T23:26:02.416Z,20.75
2022-10-29T23:28:31.003Z,20.70
2022-10-29T23:31:01.779Z,20.70
2022-10-29T23:33:29.960Z,20.70
2022-10-29T23:36:02.728Z,20.70
2022-10-29T23:38:30.734Z,20.66
2022-10-29T23:40:58.859Z,20.70
2022-10-29T23:43:26.880Z,20.71
2022-10-29T23:45:55.126Z,20.67
2022-10-29T23:48:24.693Z,20.69
2022-10-29T23:50:53.247Z,20.67
2022-10-29T23:53:21.611Z,20.68
2022-10-29T23:55:49.749Z,20.68
2022-10-29T23:58:17.980Z,20.68
